Bentonville, Ohio
Current Conditions -  °F | °C
As of 7:55 PM on Tuesday 27 Jan 2015 (Local Time) from KFGX Reporting Station
Clear Clear  
Wind Chill: 13°   Ceiling: Unl
Heat Index: 21°   Visibility: 10mi
Dew Point: 14°   Wind: 7mph
Humidity: 74%   Direction: 40°NE
Pressure: 30.2"   Gusts: NA
Location:  38.75°N, 83.61°W
Report Text: KFGX 280055Z AUTO 04006KT 10SM CLR M06/M10 A3020 RMK AO2 T10601100
Loading
Personal Weather Stations






























Interactive Weather Map New forecast layout! Learn more

10-Day Weather Forecast

Advertisements
Track Severe Weather on mobile